createdAt,value
2019-06-08T00:01:58.881Z,17.63
2019-06-08T00:04:26.551Z,15.70
2019-06-08T00:06:54.220Z,14.83
2019-06-08T00:09:22.551Z,15.20
2019-06-08T00:11:51.250Z,14.00
2019-06-08T00:14:19.171Z,13.25
2019-06-08T00:16:46.964Z,13.67
2019-06-08T00:19:15.285Z,13.58
2019-06-08T00:21:43.077Z,12.97
2019-06-08T00:24:11.026Z,11.90
2019-06-08T00:26:38.680Z,11.50
2019-06-08T00:29:06.331Z,11.67
2019-06-08T00:31:33.998Z,11.38
2019-06-08T00:34:01.744Z,10.13
2019-06-08T00:36:29.468Z,9.83
2019-06-08T00:38:57.150Z,9.83
2019-06-08T00:41:25.528Z,12.73
2019-06-08T00:43:53.737Z,8.90
2019-06-08T00:46:21.461Z,9.83
2019-06-08T00:48:49.233Z,15.77
2019-06-08T00:51:16.898Z,7.33
2019-06-08T00:53:44.560Z,10.03
2019-06-08T00:56:12.225Z,4.70
2019-06-08T00:58:39.880Z,5.33
2019-06-08T01:01:07.546Z,5.50
2019-06-08T01:03:35.188Z,3.97
2019-06-08T01:06:02.857Z,4.73
2019-06-08T01:10:56.429Z,2.97
2019-06-08T01:13:24.903Z,2.87
2019-06-08T01:18:20.717Z,2.37
2019-06-08T01:20:47.980Z,5.90
2019-06-08T01:25:41.575Z,1.27
2019-06-08T01:28:09.288Z,4.53
2019-06-08T01:33:02.951Z,2.87
2019-06-08T01:35:30.965Z,2.80
2019-06-08T01:37:58.734Z,2.60
2019-06-08T01:40:27.477Z,1.83
2019-06-08T01:42:55.233Z,2.50
2019-06-08T01:45:32.809Z,1.57
2019-06-08T01:48:00.631Z,2.60
2019-06-08T01:50:28.442Z,3.05
2019-06-08T01:52:56.211Z,3.73
2019-06-08T01:55:25.068Z,1.80
2019-06-08T01:57:52.899Z,1.93
2019-06-08T02:00:29.883Z,1.17
2019-06-08T02:02:50.598Z,2.33
2019-06-08T02:05:18.678Z,2.80
2019-06-08T02:07:46.393Z,1.00
2019-06-08T02:10:14.052Z,0.93
2019-06-08T02:12:41.704Z,1.97
2019-06-08T02:15:09.358Z,1.35
2019-06-08T02:17:37.094Z,1.33
2019-06-08T02:20:04.735Z,2.50
2019-06-08T02:22:33.084Z,1.33
2019-06-08T02:25:00.907Z,2.93
2019-06-08T02:27:29.281Z,1.33
2019-06-08T02:29:56.991Z,2.03
2019-06-08T02:32:24.646Z,1.60
2019-06-08T02:34:52.320Z,2.07
2019-06-08T02:37:20.032Z,2.10
2019-06-08T02:39:47.681Z,2.67
2019-06-08T02:42:15.328Z,2.03
2019-06-08T02:44:42.979Z,1.83
2019-06-08T02:47:10.637Z,1.50
2019-06-08T02:49:39.794Z,1.70
2019-06-08T02:52:07.543Z,1.47
2019-06-08T02:54:37.189Z,1.30
2019-06-08T02:57:04.556Z,1.82
2019-06-08T02:59:32.911Z,2.33
2019-06-08T03:02:00.712Z,2.77
2019-06-08T03:04:29.800Z,1.57
2019-06-08T03:06:57.632Z,1.83
2019-06-08T03:09:25.350Z,2.10
2019-06-08T03:11:52.997Z,2.60
2019-06-08T03:14:20.951Z,2.30
2019-06-08T03:16:48.593Z,2.20
2019-06-08T03:19:22.455Z,2.77
2019-06-08T03:21:45.821Z,1.30
2019-06-08T03:24:13.468Z,2.40
2019-06-08T03:26:41.890Z,2.80
2019-06-08T03:29:10.597Z,3.23
2019-06-08T03:31:46.089Z,2.77
2019-06-08T03:34:08.502Z,1.77
2019-06-08T03:36:43.783Z,3.67
2019-06-08T03:39:05.849Z,3.23
2019-06-08T03:41:34.285Z,2.27
2019-06-08T03:44:02.848Z,1.50
2019-06-08T03:46:30.560Z,1.93
2019-06-08T03:48:58.258Z,1.30
2019-06-08T03:51:25.899Z,1.43
2019-06-08T03:53:53.634Z,2.22
2019-06-08T03:56:21.284Z,2.30
2019-06-08T03:58:49.020Z,2.10
2019-06-08T04:01:16.707Z,1.30
2019-06-08T04:03:46.025Z,1.87
2019-06-08T04:06:14.043Z,2.27
2019-06-08T04:08:42.833Z,3.20
2019-06-08T04:11:11.062Z,1.53
2019-06-08T04:13:39.919Z,2.47
2019-06-08T04:16:07.867Z,1.62
2019-06-08T04:18:35.511Z,2.37
2019-06-08T04:21:03.178Z,1.43
2019-06-08T04:23:30.834Z,1.90
2019-06-08T04:25:58.494Z,1.67
2019-06-08T04:28:26.142Z,1.80
2019-06-08T04:30:53.797Z,1.40
2019-06-08T04:33:21.501Z,2.47
2019-06-08T04:35:50.756Z,1.50
2019-06-08T04:38:18.703Z,1.50
2019-06-08T04:40:48.036Z,1.40
2019-06-08T04:43:15.745Z,1.20
2019-06-08T04:45:45.183Z,1.95
2019-06-08T04:48:12.766Z,1.57
2019-06-08T04:50:40.860Z,4.43
2019-06-08T04:53:08.685Z,1.40
2019-06-08T04:55:36.352Z,10.80
2019-06-08T04:58:04.015Z,1.67
2019-06-08T05:00:32.277Z,1.67
2019-06-08T05:03:00.087Z,2.07
2019-06-08T05:05:27.854Z,1.67
2019-06-08T05:07:55.560Z,2.10
2019-06-08T05:10:25.240Z,1.37
2019-06-08T05:12:52.898Z,2.30
2019-06-08T05:15:20.580Z,1.63
2019-06-08T05:17:49.725Z,2.10
2019-06-08T05:20:17.667Z,2.63
2019-06-08T05:22:45.538Z,1.37
2019-06-08T05:25:13.463Z,1.77
2019-06-08T05:27:41.245Z,2.20
2019-06-08T05:30:09.191Z,1.83
2019-06-08T05:32:36.997Z,1.20
2019-06-08T05:35:04.656Z,3.55
2019-06-08T05:37:32.301Z,2.63
2019-06-08T05:39:59.971Z,1.95
2019-06-08T05:42:27.620Z,2.40
2019-06-08T05:44:55.307Z,1.57
2019-06-08T05:47:22.939Z,3.07
2019-06-08T05:49:50.592Z,1.65
2019-06-08T05:52:18.242Z,1.63
2019-06-08T05:54:45.904Z,2.37
2019-06-08T05:57:13.547Z,2.00
2019-06-08T05:59:42.085Z,0.63
2019-06-08T06:02:09.854Z,1.70
2019-06-08T06:04:38.023Z,2.92
2019-06-08T06:07:05.703Z,1.13
2019-06-08T06:09:33.870Z,3.63
2019-06-08T06:12:01.516Z,1.87
2019-06-08T06:14:29.248Z,1.73
2019-06-08T06:16:56.988Z,1.90
2019-06-08T06:19:24.632Z,1.90
2019-06-08T06:21:52.276Z,1.40
2019-06-08T06:24:19.926Z,3.20
2019-06-08T06:26:47.583Z,3.37
2019-06-08T06:29:15.237Z,2.07
2019-06-08T06:31:43.649Z,2.27
2019-06-08T06:34:12.052Z,3.90
2019-06-08T06:36:39.696Z,3.07
2019-06-08T06:39:07.344Z,1.50
2019-06-08T06:41:35.005Z,1.93
2019-06-08T06:44:02.740Z,1.73
2019-06-08T06:46:30.503Z,1.40
2019-06-08T06:48:58.157Z,3.13
2019-06-08T06:51:26.927Z,2.37
2019-06-08T06:53:54.672Z,3.17
2019-06-08T06:56:22.344Z,2.60
2019-06-08T06:58:49.983Z,2.17
2019-06-08T07:01:17.732Z,2.17
2019-06-08T07:03:46.063Z,1.92
2019-06-08T07:06:13.820Z,3.00
2019-06-08T07:08:42.116Z,2.83
2019-06-08T07:11:09.916Z,1.30
2019-06-08T07:13:37.564Z,1.42
2019-06-08T07:16:17.756Z,2.67
2019-06-08T07:18:34.597Z,1.00
2019-06-08T07:21:02.243Z,1.90
2019-06-08T07:23:29.901Z,4.13
2019-06-08T07:25:58.664Z,1.10
2019-06-08T07:28:26.401Z,2.10
2019-06-08T07:30:54.909Z,0.87
2019-06-08T07:33:22.597Z,1.00
2019-06-08T07:35:51.452Z,2.77
2019-06-08T07:38:19.295Z,1.43
2019-06-08T07:40:47.220Z,3.03
2019-06-08T07:43:16.088Z,1.13
2019-06-08T07:45:43.745Z,2.40
2019-06-08T07:48:11.402Z,0.83
2019-06-08T07:50:39.154Z,3.80
2019-06-08T07:53:06.869Z,1.90
2019-06-08T07:55:34.544Z,1.97
2019-06-08T07:58:02.206Z,1.67
2019-06-08T08:00:29.860Z,1.10
2019-06-08T08:02:58.303Z,3.00
2019-06-08T08:05:26.048Z,0.83
2019-06-08T08:07:54.775Z,1.60
2019-06-08T08:10:22.535Z,1.67
2019-06-08T08:12:50.916Z,1.57
2019-06-08T08:15:18.645Z,1.40
2019-06-08T08:17:46.369Z,1.07
2019-06-08T08:20:14.014Z,4.57
2019-06-08T08:22:41.655Z,2.70
2019-06-08T08:25:09.318Z,0.95
2019-06-08T08:27:37.619Z,2.23
2019-06-08T08:30:08.162Z,3.90
2019-06-08T08:32:37.814Z,2.47
2019-06-08T08:35:04.282Z,2.40
2019-06-08T08:37:31.938Z,3.33
2019-06-08T08:40:01.351Z,3.40
2019-06-08T08:42:30.116Z,3.67
2019-06-08T08:45:02.698Z,3.77
2019-06-08T08:47:27.774Z,1.13
2019-06-08T08:49:58.703Z,3.80
2019-06-08T08:52:34.486Z,1.43
2019-06-08T08:54:59.128Z,2.77
2019-06-08T08:57:24.805Z,3.43
2019-06-08T08:59:55.191Z,1.97
2019-06-08T09:02:21.900Z,2.80
2019-06-08T09:04:50.641Z,2.33
2019-06-08T09:07:18.915Z,1.97
2019-06-08T09:09:48.233Z,3.27
2019-06-08T09:12:18.222Z,1.20
2019-06-08T09:14:47.749Z,1.70
2019-06-08T09:17:14.832Z,2.47
2019-06-08T09:19:42.493Z,2.95
2019-06-08T09:22:10.141Z,3.42
2019-06-08T09:24:39.080Z,2.30
2019-06-08T09:27:08.015Z,3.42
2019-06-08T09:29:38.593Z,1.47
2019-06-08T09:32:05.389Z,1.53
2019-06-08T09:34:33.121Z,1.33
2019-06-08T09:37:02.881Z,2.60
2019-06-08T09:39:30.136Z,2.40
2019-06-08T09:42:00.435Z,3.43
2019-06-08T09:44:28.110Z,1.22
2019-06-08T09:46:59.075Z,2.00
2019-06-08T09:49:27.883Z,2.58
2019-06-08T09:51:56.492Z,3.00
2019-06-08T09:54:24.068Z,4.55
2019-06-08T09:56:51.777Z,2.60
2019-06-08T09:59:19.433Z,2.50
2019-06-08T10:01:47.249Z,3.90
2019-06-08T10:04:14.933Z,2.23
2019-06-08T10:06:42.593Z,6.33
2019-06-08T10:09:10.270Z,2.40
2019-06-08T10:11:38.117Z,2.27
2019-06-08T10:14:11.594Z,7.90
2019-06-08T10:16:38.012Z,2.03
2019-06-08T10:19:07.063Z,1.57
2019-06-08T10:21:33.997Z,2.80
2019-06-08T10:24:04.697Z,1.43
2019-06-08T10:26:31.016Z,2.80
2019-06-08T10:29:02.222Z,3.10
2019-06-08T10:31:38.980Z,2.37
2019-06-08T10:34:01.575Z,2.27
2019-06-08T10:36:28.401Z,2.80
2019-06-08T10:38:59.386Z,2.30
2019-06-08T10:41:27.863Z,2.90
2019-06-08T10:43:57.030Z,2.97
2019-06-08T10:46:24.952Z,1.53
2019-06-08T10:48:52.616Z,5.58
2019-06-08T10:51:20.283Z,1.75
2019-06-08T10:53:52.076Z,1.70
2019-06-08T10:56:18.835Z,1.00
2019-06-08T10:58:49.454Z,1.90
2019-06-08T11:01:18.593Z,2.00
2019-06-08T11:03:45.429Z,2.85
2019-06-08T11:06:13.606Z,3.70
2019-06-08T11:08:41.529Z,5.08
2019-06-08T11:11:11.752Z,2.50
2019-06-08T11:13:38.920Z,2.40
2019-06-08T11:16:08.401Z,2.17
2019-06-08T11:18:35.929Z,2.40
2019-06-08T11:21:05.804Z,2.23
2019-06-08T11:23:33.929Z,1.57
2019-06-08T11:26:04.629Z,2.30
2019-06-08T11:28:30.935Z,4.65
2019-06-08T11:30:59.688Z,1.70
2019-06-08T11:33:30.318Z,3.40
2019-06-08T11:35:58.174Z,2.30
2019-06-08T11:38:28.717Z,2.97
2019-06-08T11:40:57.924Z,1.62
2019-06-08T11:43:24.912Z,5.78
2019-06-08T11:45:52.586Z,1.17
2019-06-08T11:48:20.315Z,2.02
2019-06-08T11:50:49.048Z,3.90
2019-06-08T11:53:18.133Z,1.98
2019-06-08T11:55:50.658Z,1.50
2019-06-08T11:58:19.206Z,2.85
2019-06-08T12:00:44.893Z,2.80
2019-06-08T12:03:13.108Z,1.85
2019-06-08T12:05:40.985Z,4.08
2019-06-08T12:08:08.856Z,1.63
2019-06-08T12:10:38.224Z,3.40
2019-06-08T12:13:07.117Z,1.70
2019-06-08T12:15:35.400Z,2.67
2019-06-08T12:18:03.399Z,1.67
2019-06-08T12:20:31.320Z,1.70
2019-06-08T12:22:59.059Z,5.67
2019-06-08T12:25:26.846Z,1.83
2019-06-08T12:27:54.792Z,3.05
2019-06-08T12:30:26.224Z,1.70
2019-06-08T12:32:51.884Z,1.62
2019-06-08T12:35:19.540Z,1.50
2019-06-08T12:37:48.391Z,2.30
2019-06-08T12:40:18.972Z,2.37
2019-06-08T12:42:45.931Z,3.37
2019-06-08T12:45:13.587Z,1.90
2019-06-08T12:47:41.262Z,1.37
2019-06-08T12:50:11.794Z,1.10
2019-06-08T12:52:39.148Z,1.17
2019-06-08T12:55:12.577Z,1.20
2019-06-08T12:57:36.995Z,2.12
2019-06-08T13:00:04.656Z,2.03
2019-06-08T13:02:32.323Z,2.10
2019-06-08T13:04:59.993Z,2.33
2019-06-08T13:07:28.162Z,1.82
2019-06-08T13:09:58.173Z,2.08
2019-06-08T13:12:25.364Z,2.93
2019-06-08T13:14:53.017Z,4.47
2019-06-08T13:17:21.344Z,1.98
2019-06-08T13:19:49.220Z,3.00
2019-06-08T13:22:19.341Z,2.63
2019-06-08T13:24:47.889Z,1.77
2019-06-08T13:27:19.204Z,4.93
2019-06-08T13:29:45.004Z,2.08
2019-06-08T13:32:13.804Z,2.80
2019-06-08T13:34:41.607Z,1.33
2019-06-08T13:37:10.529Z,3.70
2019-06-08T13:39:38.876Z,2.03
2019-06-08T13:42:07.771Z,1.30
2019-06-08T13:44:37.690Z,1.32
2019-06-08T13:47:05.079Z,2.67
2019-06-08T13:49:32.747Z,1.27
2019-06-08T13:52:00.400Z,1.70
2019-06-08T13:54:31.203Z,3.15
2019-06-08T13:56:58.930Z,4.60
2019-06-08T13:59:30.323Z,1.72
2019-06-08T14:01:57.941Z,2.67
2019-06-08T14:04:25.637Z,2.02
2019-06-08T14:06:53.291Z,1.42
2019-06-08T14:09:22.077Z,2.87
2019-06-08T14:11:50.320Z,3.67
2019-06-08T14:14:19.986Z,2.85
2019-06-08T14:16:50.400Z,1.35
2019-06-08T14:19:19.344Z,2.92
2019-06-08T14:21:47.649Z,1.82
2019-06-08T14:24:18.199Z,3.95
2019-06-08T14:26:44.887Z,2.47
2019-06-08T14:29:12.559Z,2.77
2019-06-08T14:31:40.214Z,3.33
2019-06-08T14:34:10.311Z,3.30
2019-06-08T14:36:40.628Z,2.17
2019-06-08T14:39:10.392Z,2.22
2019-06-08T14:41:35.993Z,4.13
2019-06-08T14:44:03.659Z,1.72
2019-06-08T14:46:31.326Z,2.83
2019-06-08T14:48:58.989Z,3.50
2019-06-08T14:51:47.798Z,3.97
2019-06-08T14:54:17.880Z,2.35
2019-06-08T14:56:44.412Z,1.63
2019-06-08T14:59:12.072Z,3.20
2019-06-08T15:01:39.733Z,4.57
2019-06-08T15:04:08.951Z,2.97
2019-06-08T15:06:38.196Z,3.20
2019-06-08T15:09:08.524Z,2.17
2019-06-08T15:11:37.962Z,2.58
2019-06-08T15:14:04.800Z,4.35
2019-06-08T15:16:32.844Z,3.67
2019-06-08T15:19:00.751Z,3.08
2019-06-08T15:21:32.415Z,2.87
2019-06-08T15:23:58.122Z,3.07
2019-06-08T15:26:32.802Z,4.53
2019-06-08T15:28:55.241Z,2.50
2019-06-08T15:31:23.124Z,3.47
2019-06-08T15:33:50.840Z,2.17
2019-06-08T15:36:20.841Z,2.02
2019-06-08T15:38:48.096Z,3.27
2019-06-08T15:41:18.094Z,3.02
2019-06-08T15:43:45.181Z,2.52
2019-06-08T15:46:12.844Z,2.80
2019-06-08T15:48:40.513Z,3.05
2019-06-08T15:51:08.185Z,2.67
2019-06-08T15:53:37.878Z,4.43
2019-06-08T15:56:05.213Z,3.67
2019-06-08T15:58:33.970Z,2.60
2019-06-08T16:01:01.719Z,6.05
2019-06-08T16:03:29.428Z,2.90
2019-06-08T16:05:57.127Z,3.17
2019-06-08T16:08:25.906Z,5.80
2019-06-08T16:10:53.937Z,3.50
2019-06-08T16:13:21.599Z,4.72
2019-06-08T16:15:49.343Z,2.47
2019-06-08T16:18:17.024Z,9.18
2019-06-08T16:20:44.750Z,4.85
2019-06-08T16:23:12.403Z,3.50
2019-06-08T16:25:40.109Z,1.62
2019-06-08T16:28:07.823Z,3.42
2019-06-08T16:30:35.490Z,2.50
2019-06-08T16:33:03.144Z,2.42
2019-06-08T16:35:31.519Z,2.33
2019-06-08T16:37:59.544Z,3.92
2019-06-08T16:40:27.642Z,3.17
2019-06-08T16:42:55.453Z,2.65
2019-06-08T16:45:23.113Z,3.37
2019-06-08T16:47:50.774Z,4.40
2019-06-08T16:50:24.408Z,3.05
2019-06-08T16:52:47.857Z,5.22
2019-06-08T16:55:15.516Z,3.37
2019-06-08T16:57:43.185Z,3.52
2019-06-08T17:00:30.582Z,3.83
2019-06-08T17:02:40.352Z,1.75
2019-06-08T17:05:08.020Z,2.57
2019-06-08T17:07:35.687Z,3.83
2019-06-08T17:10:03.347Z,3.62
2019-06-08T17:12:31.007Z,6.13
2019-06-08T17:14:58.670Z,2.57
2019-06-08T17:17:26.338Z,4.05
2019-06-08T17:19:54.103Z,4.50
2019-06-08T17:22:21.824Z,3.67
2019-06-08T17:24:49.564Z,3.92
2019-06-08T17:27:26.400Z,3.17
2019-06-08T17:29:46.583Z,3.57
2019-06-08T17:32:14.249Z,2.17
2019-06-08T17:34:42.443Z,2.37
2019-06-08T17:37:10.355Z,4.35
2019-06-08T17:39:38.011Z,2.80
2019-06-08T17:42:05.672Z,3.67
2019-06-08T17:44:34.891Z,2.42
2019-06-08T17:47:02.779Z,5.03
2019-06-08T17:49:30.431Z,4.05
2019-06-08T17:51:58.103Z,4.17
2019-06-08T17:54:25.766Z,3.37
2019-06-08T17:56:53.428Z,3.80
2019-06-08T17:59:21.080Z,3.17
2019-06-08T18:01:48.757Z,3.03
2019-06-08T18:04:17.549Z,3.12
2019-06-08T18:06:47.374Z,1.82
2019-06-08T18:09:14.724Z,3.17
2019-06-08T18:11:43.795Z,3.93
2019-06-08T18:14:11.914Z,13.08
2019-06-08T18:16:42.135Z,16.37
2019-06-08T18:19:09.008Z,10.27
2019-06-08T18:21:38.896Z,6.63
2019-06-08T18:24:07.783Z,5.30
2019-06-08T18:26:38.334Z,3.10
2019-06-08T18:29:04.756Z,7.03
2019-06-08T18:31:32.500Z,3.67
2019-06-08T18:34:02.109Z,2.67
2019-06-08T18:36:29.516Z,6.87
2019-06-08T18:38:58.142Z,4.27
2019-06-08T18:41:27.140Z,4.08
2019-06-08T18:43:54.912Z,4.07
2019-06-08T18:46:22.571Z,2.37
2019-06-08T18:48:50.244Z,3.73
2019-06-08T18:51:17.892Z,3.20
2019-06-08T18:54:05.231Z,3.23
2019-06-08T18:56:14.915Z,4.22
2019-06-08T18:58:43.679Z,4.65
2019-06-08T19:01:11.535Z,3.95
2019-06-08T19:03:43.227Z,4.20
2019-06-08T19:06:10.405Z,3.70
2019-06-08T19:08:40.927Z,3.90
2019-06-08T19:11:08.120Z,1.62
2019-06-08T19:13:37.860Z,4.67
2019-06-08T19:16:07.573Z,2.10
2019-06-08T19:18:35.055Z,4.20
2019-06-08T19:21:02.703Z,2.83
2019-06-08T19:23:30.422Z,3.40
2019-06-08T19:26:00.435Z,2.87
2019-06-08T19:28:35.685Z,4.43
2019-06-08T19:30:58.291Z,3.93
2019-06-08T19:33:28.022Z,2.93
2019-06-08T19:35:58.181Z,4.00
2019-06-08T19:38:27.699Z,5.22
2019-06-08T19:40:54.190Z,7.07
2019-06-08T19:43:21.851Z,4.53
2019-06-08T19:45:51.624Z,4.97
2019-06-08T19:48:19.169Z,5.17
2019-06-08T19:50:47.240Z,5.73
2019-06-08T19:53:18.306Z,4.00
2019-06-08T19:55:51.156Z,5.23
2019-06-08T19:58:14.908Z,4.87
2019-06-08T20:00:44.305Z,4.53
2019-06-08T20:03:12.013Z,4.10
2019-06-08T20:05:41.149Z,5.53
2019-06-08T20:08:08.948Z,6.23
2019-06-08T20:10:36.605Z,5.30
2019-06-08T20:13:04.263Z,3.07
2019-06-08T20:15:31.924Z,4.83
2019-06-08T20:17:59.594Z,3.27
2019-06-08T20:20:27.942Z,3.87
2019-06-08T20:22:58.351Z,6.00
2019-06-08T20:25:27.656Z,4.97
2019-06-08T20:27:54.517Z,8.03
2019-06-08T20:30:22.168Z,6.20
2019-06-08T20:32:52.317Z,7.07
2019-06-08T20:35:19.308Z,6.43
2019-06-08T20:37:47.847Z,5.77
2019-06-08T20:40:17.874Z,4.53
2019-06-08T20:42:49.069Z,5.53
2019-06-08T20:45:14.418Z,7.27
2019-06-08T20:47:42.376Z,5.40
2019-06-08T20:50:10.143Z,6.53
2019-06-08T20:52:37.924Z,7.77
2019-06-08T20:55:07.738Z,7.43
2019-06-08T20:57:35.096Z,10.63
2019-06-08T21:00:08.513Z,7.43
2019-06-08T21:02:32.133Z,9.27
2019-06-08T21:05:00.001Z,10.27
2019-06-08T21:07:28.136Z,9.83
2019-06-08T21:09:58.154Z,8.63
2019-06-08T21:12:25.321Z,9.67
2019-06-08T21:14:54.242Z,10.83
2019-06-08T21:17:22.346Z,9.63
2019-06-08T21:19:50.890Z,9.13
2019-06-08T21:22:18.668Z,9.20
2019-06-08T21:24:50.032Z,7.67
2019-06-08T21:27:17.361Z,10.10
2019-06-08T21:29:53.698Z,7.07
2019-06-08T21:32:14.466Z,7.63
2019-06-08T21:34:42.116Z,7.97
2019-06-08T21:37:09.793Z,14.20
2019-06-08T21:39:39.105Z,8.20
2019-06-08T21:42:07.928Z,8.33
2019-06-08T21:44:37.201Z,7.97
2019-06-08T21:47:05.043Z,8.33
2019-06-08T21:49:32.701Z,8.13
2019-06-08T21:52:01.288Z,11.57
2019-06-08T21:54:29.282Z,7.85
2019-06-08T21:56:59.276Z,12.07
2019-06-08T21:59:26.287Z,8.77
2019-06-08T22:01:55.205Z,10.83
2019-06-08T22:04:23.613Z,12.47
2019-06-08T22:06:51.989Z,9.27
2019-06-08T22:09:19.698Z,9.40
2019-06-08T22:11:47.354Z,10.00
2019-06-08T22:14:15.013Z,9.77
2019-06-08T22:16:42.664Z,11.37
2019-06-08T22:19:10.332Z,8.40
2019-06-08T22:21:37.989Z,9.77
2019-06-08T22:24:07.768Z,10.80
2019-06-08T22:26:35.001Z,11.97
2019-06-08T22:29:03.716Z,8.23
2019-06-08T22:31:31.587Z,8.60
2019-06-08T22:34:02.048Z,9.40
2019-06-08T22:36:28.604Z,9.23
2019-06-08T22:38:58.859Z,9.97
2019-06-08T22:41:28.072Z,6.73
2019-06-08T22:43:58.879Z,9.80
2019-06-08T22:46:25.852Z,7.83
2019-06-08T22:48:54.591Z,7.30
2019-06-08T22:51:22.992Z,7.07
2019-06-08T22:53:50.649Z,7.83
2019-06-08T22:56:18.486Z,7.43
2019-06-08T22:58:48.003Z,8.77
2019-06-08T23:01:18.187Z,9.37
2019-06-08T23:03:47.447Z,6.57
2019-06-08T23:06:17.414Z,7.87
2019-06-08T23:08:44.199Z,7.40
2019-06-08T23:11:11.866Z,8.67
2019-06-08T23:13:39.511Z,6.47
2019-06-08T23:16:08.803Z,9.20
2019-06-08T23:18:37.334Z,6.97
2019-06-08T23:21:06.518Z,8.37
2019-06-08T23:23:34.504Z,8.03
2019-06-08T23:26:03.730Z,6.93
2019-06-08T23:28:31.511Z,6.80
2019-06-08T23:31:10.660Z,7.77
2019-06-08T23:33:28.508Z,7.60
2019-06-08T23:36:33.616Z,8.53
2019-06-08T23:38:27.750Z,6.63
2019-06-08T23:40:54.864Z,8.30
2019-06-08T23:43:22.508Z,6.33
2019-06-08T23:45:50.159Z,6.30
2019-06-08T23:48:17.813Z,8.10
2019-06-08T23:50:47.444Z,8.43
2019-06-08T23:53:14.812Z,8.50
2019-06-08T23:55:42.465Z,7.43
2019-06-08T23:58:11.374Z,5.67
